Time;durP1;ratioP1;P1;durP2;ratioP2;P2;SDS_P1;SDS_P2;PMS_P1;PMS_P2;Temp;Humidity;BMP_temperature;BMP_pressure;BME280_temperature;BME280_humidity;BME280_pressure;Samples;Min_cycle;Max_cycle;Signal;HPM_P1;HPM_P2
2023/10/22 00:00:19;;;;;;;;;;;;;;;18.91;62.76;99310.16;5029808;28;19924;-76
2023/10/22 00:02:44;;;;;;;;;;;;;;;19.01;62.46;99314.28;5031022;28;20019;-77
2023/10/22 00:05:10;;;;;;;;;;;;;;;18.80;63.18;99313.75;5014820;28;19940;-76
2023/10/22 00:07:35;;;;;;;;;;;;;;;18.89;62.88;99310.56;5013500;28;19913;-76
2023/10/22 00:10:01;;;;;;;;;;;;;;;18.75;63.63;99318.97;5018666;28;19924;-76
2023/10/22 00:12:27;;;;;;;;;;;;;;;18.78;63.75;99310.50;5026740;28;19924;-77
2023/10/22 00:14:52;;;;;;;;;;;;;;;18.56;64.85;99311.56;5032292;28;19917;-77
2023/10/22 00:17:17;;;;;;;;;;;;;;;18.74;64.26;99315.31;5032332;28;19928;-76
2023/10/22 00:19:43;;;;;;;;;;;;;;;18.81;63.79;99306.03;5022685;28;20015;-77
2023/10/22 00:22:09;;;;;;;;;;;;;;;18.74;64.45;99323.81;5032834;28;19913;-76
2023/10/22 00:24:34;;;;;;;;;;;;;;;18.92;63.93;99323.13;5021251;28;19913;-77
2023/10/22 00:27:00;;;;;;;;;;;;;;;19.06;63.31;99319.56;5017346;28;19940;-76
2023/10/22 00:29:25;;;;;;;;;;;;;;;19.01;63.40;99303.78;5013542;28;19913;-76
2023/10/22 00:31:51;;;;;;;;;;;;;;;19.04;63.23;99299.31;5011999;28;19914;-76
2023/10/22 00:34:17;;;;;;;;;;;;;;;18.79;64.45;99311.28;5013418;28;19919;-76
2023/10/22 00:36:42;;;;;;;;;;;;;;;18.90;64.48;99314.22;5011874;28;19917;-77
2023/10/22 00:39:07;;;;;;;;;;;;;;;18.90;64.09;99298.00;5018363;28;19921;-76
2023/10/22 00:41:33;;;;;;;;;;;;;;;18.91;64.27;99316.63;5043937;28;19920;-76
2023/10/22 00:43:58;;;;;;;;;;;;;;;18.99;64.28;99320.31;5052935;28;19917;-76
2023/10/22 00:46:24;;;;;;;;;;;;;;;18.99;64.04;99306.13;5052708;28;19947;-76
2023/10/22 00:48:50;;;;;;;;;;;;;;;18.94;64.28;99300.88;5052571;28;19928;-76
2023/10/22 00:51:16;;;;;;;;;;;;;;;18.98;64.56;99292.38;5051457;28;20390;-76
2023/10/22 00:53:42;;;;;;;;;;;;;;;18.90;65.35;99291.53;5047931;28;19912;-76
2023/10/22 00:56:08;;;;;;;;;;;;;;;18.71;66.13;99304.78;5013406;28;19924;-76
2023/10/22 00:58:34;;;;;;;;;;;;;;;17.85;70.08;99297.19;5019815;28;19925;-76
2023/10/22 01:01:00;;;;;;;;;;;;;;;18.09;69.85;99292.16;5019409;28;20099;-76
2023/10/22 01:03:25;;;;;;;;;;;;;;;18.31;69.17;99306.50;5024339;28;19940;-76
2023/10/22 01:05:51;;;;;;;;;;;;;;;18.30;68.71;99296.41;5022118;28;20384;-76
2023/10/22 01:08:16;;;;;;;;;;;;;;;18.09;70.03;99292.97;5030955;28;19917;-76
2023/10/22 01:10:41;;;;;;;;;;;;;;;18.00;70.29;99309.44;5025380;28;19917;-76
2023/10/22 01:13:06;;;;;;;;;;;;;;;17.73;71.62;99305.94;5021682;28;19917;-76
2023/10/22 01:15:32;;;;;;;;;;;;;;;17.75;72.08;99295.06;5019564;28;19972;-76
2023/10/22 01:17:57;;;;;;;;;;;;;;;17.51;72.86;99300.88;5011275;28;19928;-76
2023/10/22 01:20:22;;;;;;;;;;;;;;;17.63;72.70;99307.47;5019804;28;19925;-76
2023/10/22 01:22:48;;;;;;;;;;;;;;;18.03;71.07;99308.69;5022182;28;19975;-76
2023/10/22 01:25:13;;;;;;;;;;;;;;;18.22;70.14;99304.81;5031764;28;19921;-76
2023/10/22 01:27:38;;;;;;;;;;;;;;;18.38;69.38;99306.56;5022956;28;19917;-76
2023/10/22 01:30:04;;;;;;;;;;;;;;;18.36;69.35;99304.13;5025473;28;19918;-76
2023/10/22 01:32:33;;;;;;;;;;;;;;;18.44;69.44;99305.00;5012716;28;19917;-76
2023/10/22 01:34:59;;;;;;;;;;;;;;;18.43;69.23;99299.72;5012285;28;20435;-76
2023/10/22 01:37:25;;;;;;;;;;;;;;;18.28;69.80;99307.28;5027346;28;19925;-76
2023/10/22 01:39:50;;;;;;;;;;;;;;;17.93;70.86;99281.09;5012755;28;19914;-76
2023/10/22 01:42:16;;;;;;;;;;;;;;;17.49;73.47;99285.50;5012283;28;19918;-76
2023/10/22 01:44:41;;;;;;;;;;;;;;;17.41;74.13;99278.94;5012419;28;19960;-76
2023/10/22 01:47:06;;;;;;;;;;;;;;;16.98;75.95;99274.34;5030888;28;19924;-76
2023/10/22 01:49:32;;;;;;;;;;;;;;;17.32;75.13;99282.09;5017497;28;20418;-76
2023/10/22 01:51:57;;;;;;;;;;;;;;;17.13;76.10;99268.91;5011364;28;19917;-76
2023/10/22 01:54:22;;;;;;;;;;;;;;;16.94;77.79;99258.56;5027100;28;20321;-76
2023/10/22 01:56:48;;;;;;;;;;;;;;;17.20;76.74;99257.69;5030869;28;19917;-76
2023/10/22 01:59:13;;;;;;;;;;;;;;;17.29;76.06;99270.72;5029885;28;20071;-76
2023/10/22 02:01:39;;;;;;;;;;;;;;;17.34;76.00;99290.16;5015248;28;19918;-76
2023/10/22 02:04:04;;;;;;;;;;;;;;;17.33;76.61;99278.06;5011849;28;19913;-76
2023/10/22 02:06:30;;;;;;;;;;;;;;;17.52;75.95;99285.53;5011640;28;19924;-76
2023/10/22 02:08:55;;;;;;;;;;;;;;;17.52;75.76;99296.84;5012651;28;20293;-76
2023/10/22 02:11:21;;;;;;;;;;;;;;;17.64;75.12;99304.22;5019223;28;19975;-76
2023/10/22 02:13:46;;;;;;;;;;;;;;;17.85;74.41;99321.81;5030220;28;19940;-76
2023/10/22 02:16:12;;;;;;;;;;;;;;;17.98;73.83;99328.84;5019365;28;20004;-76
2023/10/22 02:18:37;;;;;;;;;;;;;;;18.10;73.02;99320.09;5026937;28;19921;-76
2023/10/22 02:21:05;;;;;;;;;;;;;;;18.17;72.66;99307.19;5033898;28;19940;-76
2023/10/22 02:23:31;;;;;;;;;;;;;;;17.73;74.72;99300.28;5047358;28;19913;-76
2023/10/22 02:25:56;;;;;;;;;;;;;;;17.85;74.46;99302.00;5044313;28;20307;-76
2023/10/22 02:28:22;;;;;;;;;;;;;;;18.02;73.79;99294.91;5035413;28;19952;-76
2023/10/22 02:30:47;;;;;;;;;;;;;;;17.92;73.76;99299.25;5034066;28;19913;-76
2023/10/22 02:33:13;;;;;;;;;;;;;;;17.92;74.10;99297.25;5020487;28;19917;-76
2023/10/22 02:35:41;;;;;;;;;;;;;;;17.98;73.83;99291.22;5015318;28;19917;-76
2023/10/22 02:38:10;;;;;;;;;;;;;;;17.82;74.46;99303.63;5015651;28;20381;-76
2023/10/22 02:40:35;;;;;;;;;;;;;;;16.80;79.81;99302.34;5040824;28;19917;-76
2023/10/22 02:43:02;;;;;;;;;;;;;;;16.44;82.31;99306.66;5049871;28;20296;-76
2023/10/22 02:45:27;;;;;;;;;;;;;;;16.54;82.95;99322.97;5019511;28;19913;-76
2023/10/22 02:47:52;;;;;;;;;;;;;;;16.25;84.44;99339.41;5015176;28;20454;-76
2023/10/22 02:50:17;;;;;;;;;;;;;;;16.11;85.29;99340.00;5028093;28;19924;-76
2023/10/22 02:52:43;;;;;;;;;;;;;;;15.89;84.31;99328.28;5033775;28;19979;-76
2023/10/22 02:55:08;;;;;;;;;;;;;;;15.84;84.61;99331.41;5022742;28;19939;-76
2023/10/22 02:57:33;;;;;;;;;;;;;;;16.33;82.85;99329.06;5028492;28;20372;-76
2023/10/22 02:59:59;;;;;;;;;;;;;;;16.61;80.50;99317.41;5033575;28;19968;-76
2023/10/22 03:02:24;;;;;;;;;;;;;;;16.62;80.81;99307.75;5029238;28;19924;-76
2023/10/22 03:04:49;;;;;;;;;;;;;;;16.90;79.58;99317.84;5032777;28;19983;-76
2023/10/22 03:07:15;;;;;;;;;;;;;;;16.96;79.14;99327.59;5030145;28;20366;-76
2023/10/22 03:09:40;;;;;;;;;;;;;;;16.92;78.88;99318.28;5023916;28;19928;-76
2023/10/22 03:12:05;;;;;;;;;;;;;;;17.05;78.57;99320.88;5033752;28;20339;-76
2023/10/22 03:14:31;;;;;;;;;;;;;;;17.00;78.35;99315.56;5033258;28;19958;-76
2023/10/22 03:16:56;;;;;;;;;;;;;;;17.09;78.00;99321.75;5033406;28;19979;-76
2023/10/22 03:19:22;;;;;;;;;;;;;;;17.20;77.23;99314.22;5022453;28;19921;-75
2023/10/22 03:21:48;;;;;;;;;;;;;;;17.11;76.95;99319.34;5028949;28;19924;-76
2023/10/22 03:24:15;;;;;;;;;;;;;;;16.23;79.53;99324.88;5018585;28;19928;-76
2023/10/22 03:26:40;;;;;;;;;;;;;;;15.93;81.26;99334.03;5014109;28;19917;-76
2023/10/22 03:29:06;;;;;;;;;;;;;;;16.07;81.19;99345.56;5020609;28;20297;-76
2023/10/22 03:31:32;;;;;;;;;;;;;;;15.48;83.51;99337.19;5032127;28;19960;-75
2023/10/22 03:33:57;;;;;;;;;;;;;;;15.54;83.50;99338.50;5034347;28;20365;-75
2023/10/22 03:36:22;;;;;;;;;;;;;;;15.52;83.71;99338.06;5033322;28;19917;-75
2023/10/22 03:38:48;;;;;;;;;;;;;;;15.92;82.41;99326.72;5022415;28;19921;-75
2023/10/22 03:41:14;;;;;;;;;;;;;;;16.13;81.05;99321.47;5034107;28;20407;-75
2023/10/22 03:43:39;;;;;;;;;;;;;;;16.22;80.44;99321.22;5033309;28;20388;-75
2023/10/22 03:46:05;;;;;;;;;;;;;;;16.36;79.48;99331.13;5023253;28;19917;-75
2023/10/22 03:48:30;;;;;;;;;;;;;;;16.12;80.47;99336.78;5026690;28;19925;-75
2023/10/22 03:50:56;;;;;;;;;;;;;;;16.37;79.79;99327.91;5017533;28;19918;-75
2023/10/22 03:53:21;;;;;;;;;;;;;;;16.59;78.29;99316.97;5014670;28;19913;-76
2023/10/22 03:55:47;;;;;;;;;;;;;;;16.68;77.96;99308.22;5013356;28;20311;-75
2023/10/22 03:58:12;;;;;;;;;;;;;;;16.42;79.10;99309.84;5026907;28;19925;-76
2023/10/22 04:00:38;;;;;;;;;;;;;;;16.37;79.44;99311.00;5026277;28;19924;-75
2023/10/22 04:03:04;;;;;;;;;;;;;;;16.49;78.47;99309.16;5027433;28;20481;-75
2023/10/22 04:05:29;;;;;;;;;;;;;;;16.58;78.24;99297.59;5013214;28;19918;-76
2023/10/22 04:07:55;;;;;;;;;;;;;;;16.58;77.74;99289.94;5013944;28;20380;-76
2023/10/22 04:10:20;;;;;;;;;;;;;;;16.47;78.70;99274.84;5025770;28;20034;-75
2023/10/22 04:12:45;;;;;;;;;;;;;;;16.75;77.50;99265.16;5012546;28;19920;-76
2023/10/22 04:15:11;;;;;;;;;;;;;;;16.72;77.05;99251.81;5013658;28;19948;-76
2023/10/22 04:17:36;;;;;;;;;;;;;;;16.24;79.44;99255.94;5016303;28;19940;-76
2023/10/22 04:20:03;;;;;;;;;;;;;;;16.25;79.52;99268.88;5032176;28;20376;-76
2023/10/22 04:22:28;;;;;;;;;;;;;;;15.77;82.42;99281.31;5014512;28;19917;-76
2023/10/22 04:24:54;;;;;;;;;;;;;;;16.11;80.98;99277.94;5021357;28;19918;-76
2023/10/22 04:27:20;;;;;;;;;;;;;;;16.39;79.66;99273.94;5016559;28;19917;-76
2023/10/22 04:29:46;;;;;;;;;;;;;;;16.44;79.05;99287.69;5033366;28;20443;-76
2023/10/22 04:32:14;;;;;;;;;;;;;;;16.12;80.73;99302.13;5033162;28;20392;-76
2023/10/22 04:34:40;;;;;;;;;;;;;;;15.58;83.28;99307.56;5048564;28;19920;-75
2023/10/22 04:37:06;;;;;;;;;;;;;;;15.19;85.99;99308.38;5018709;28;19921;-76
2023/10/22 04:39:31;;;;;;;;;;;;;;;14.91;88.56;99308.63;5018274;28;19924;-75
2023/10/22 04:41:56;;;;;;;;;;;;;;;15.22;88.15;99302.03;5027404;28;19917;-75
2023/10/22 04:44:22;;;;;;;;;;;;;;;15.16;87.09;99314.78;5029179;28;19999;-75
2023/10/22 04:46:47;;;;;;;;;;;;;;;14.89;88.12;99317.41;5032897;28;19913;-76
2023/10/22 04:49:13;;;;;;;;;;;;;;;14.91;87.72;99309.41;5032871;28;19921;-75
2023/10/22 04:51:39;;;;;;;;;;;;;;;15.35;85.86;99282.97;5032831;28;19945;-75
2023/10/22 04:54:04;;;;;;;;;;;;;;;15.54;84.33;99284.13;5027651;28;19917;-75
2023/10/22 04:56:29;;;;;;;;;;;;;;;15.69;83.33;99296.50;5012879;28;19914;-75
2023/10/22 04:58:55;;;;;;;;;;;;;;;15.81;82.43;99295.50;5016783;28;19979;-75
2023/10/22 05:01:20;;;;;;;;;;;;;;;16.02;81.34;99309.19;5032208;28;19913;-74
2023/10/22 05:03:45;;;;;;;;;;;;;;;15.11;85.40;99329.16;5032428;28;19933;-74
2023/10/22 05:06:11;;;;;;;;;;;;;;;14.70;88.25;99341.50;5032825;28;19913;-73
2023/10/22 05:08:36;;;;;;;;;;;;;;;14.12;90.69;99368.25;5015557;28;19913;-73
2023/10/22 05:11:05;;;;;;;;;;;;;;;14.23;90.42;99376.09;5027614;28;20312;-74
2023/10/22 05:13:31;;;;;;;;;;;;;;;14.05;90.53;99384.91;5020317;28;19996;-74
2023/10/22 05:15:56;;;;;;;;;;;;;;;14.08;91.06;99375.75;5018308;28;20071;-73
2023/10/22 05:18:22;;;;;;;;;;;;;;;14.13;91.13;99367.06;5032383;28;19927;-72
2023/10/22 05:20:48;;;;;;;;;;;;;;;14.26;90.79;99375.41;5032297;28;19937;-73
2023/10/22 05:23:14;;;;;;;;;;;;;;;14.54;89.58;99385.75;5024239;28;20000;-74
2023/10/22 05:25:39;;;;;;;;;;;;;;;14.39;90.23;99391.00;5014462;28;20017;-74
2023/10/22 05:28:04;;;;;;;;;;;;;;;14.65;90.57;99391.63;5024436;28;20395;-73
2023/10/22 05:30:33;;;;;;;;;;;;;;;14.87;89.04;99398.63;5027473;28;19918;-73
2023/10/22 05:32:59;;;;;;;;;;;;;;;14.79;88.07;99392.03;5027417;28;20405;-74
2023/10/22 05:35:24;;;;;;;;;;;;;;;15.08;87.95;99392.69;5017143;28;19917;-71
2023/10/22 05:37:51;;;;;;;;;;;;;;;15.26;86.33;99387.44;5020640;28;20320;-71
2023/10/22 05:40:17;;;;;;;;;;;;;;;15.47;84.40;99383.47;5027098;28;19913;-74
2023/10/22 05:42:42;;;;;;;;;;;;;;;15.72;82.83;99374.69;5026539;28;19917;-78
2023/10/22 05:45:09;;;;;;;;;;;;;;;15.90;82.21;99389.16;5026977;28;19992;-76
2023/10/22 05:47:34;;;;;;;;;;;;;;;16.09;81.37;99388.31;5036456;28;20010;-78
2023/10/22 05:50:00;;;;;;;;;;;;;;;16.21;80.54;99395.78;5037211;28;20032;-72
2023/10/22 05:52:26;;;;;;;;;;;;;;;16.26;80.41;99380.53;5021587;28;20010;-71
2023/10/22 05:54:52;;;;;;;;;;;;;;;16.44;79.83;99394.16;5028669;28;20281;-72
2023/10/22 05:57:20;;;;;;;;;;;;;;;16.21;80.68;99392.16;5016555;28;19968;-70
2023/10/22 05:59:45;;;;;;;;;;;;;;;16.08;81.71;99391.50;5012338;28;19972;-75
2023/10/22 06:02:10;;;;;;;;;;;;;;;16.11;81.85;99380.28;5010462;28;20344;-73
2023/10/22 06:04:35;;;;;;;;;;;;;;;16.27;80.99;99374.53;5013087;28;20307;-74
2023/10/22 06:07:01;;;;;;;;;;;;;;;16.49;80.72;99369.25;5021367;28;19928;-72
2023/10/22 06:09:26;;;;;;;;;;;;;;;16.29;80.83;99385.47;5018649;28;20392;-71
2023/10/22 06:11:51;;;;;;;;;;;;;;;16.32;80.80;99410.09;5027313;28;19968;-70
2023/10/22 06:14:17;;;;;;;;;;;;;;;16.25;81.59;99407.13;5011672;28;20012;-70
2023/10/22 06:16:42;;;;;;;;;;;;;;;16.32;81.23;99396.00;5015466;28;19921;-71
2023/10/22 06:19:07;;;;;;;;;;;;;;;16.29;81.99;99399.56;5026016;28;19928;-71
2023/10/22 06:21:32;;;;;;;;;;;;;;;16.42;81.79;99391.72;5030009;28;20001;-70
2023/10/22 06:23:58;;;;;;;;;;;;;;;15.89;85.37;99386.69;5031576;28;19971;-71
2023/10/22 06:26:23;;;;;;;;;;;;;;;15.71;87.06;99381.53;5029289;28;19928;-74
2023/10/22 06:28:49;;;;;;;;;;;;;;;16.09;85.35;99388.31;5026072;28;19917;-72
2023/10/22 06:31:14;;;;;;;;;;;;;;;16.49;83.07;99388.19;5017576;28;19976;-70
2023/10/22 06:33:40;;;;;;;;;;;;;;;16.40;83.48;99392.06;5039769;28;19939;-74
2023/10/22 06:36:11;;;;;;;;;;;;;;;16.32;84.06;99403.63;5011485;28;20075;-74
2023/10/22 06:38:37;;;;;;;;;;;;;;;16.70;82.12;99399.84;5016978;28;20018;-75
2023/10/22 06:41:02;;;;;;;;;;;;;;;16.63;80.86;99411.00;5028164;28;19956;-75
2023/10/22 06:43:28;;;;;;;;;;;;;;;16.75;80.65;99412.00;5029136;28;20028;-72
2023/10/22 06:45:57;;;;;;;;;;;;;;;16.61;80.22;99409.78;5016494;28;20382;-78
2023/10/22 06:48:22;;;;;;;;;;;;;;;16.64;80.46;99412.63;5022026;28;20314;-81
2023/10/22 06:50:48;;;;;;;;;;;;;;;16.80;80.03;99414.53;5032587;28;20007;-78
2023/10/22 06:53:13;;;;;;;;;;;;;;;17.03;79.37;99413.69;5029428;28;19931;-77
2023/10/22 06:55:40;;;;;;;;;;;;;;;17.20;78.40;99415.16;5017054;28;19921;-74
2023/10/22 06:58:06;;;;;;;;;;;;;;;17.30;78.15;99419.31;5013320;28;19987;-77
2023/10/22 07:00:31;;;;;;;;;;;;;;;17.56;77.43;99410.00;5015536;28;20380;-76
2023/10/22 07:02:57;;;;;;;;;;;;;;;17.88;77.43;99403.09;5015275;28;20004;-77
2023/10/22 07:05:22;;;;;;;;;;;;;;;17.81;75.69;99410.28;5021741;28;19971;-73
2023/10/22 07:07:47;;;;;;;;;;;;;;;17.89;75.92;99410.38;5034795;28;19913;-74
2023/10/22 07:10:13;;;;;;;;;;;;;;;17.75;76.51;99428.81;5034776;28;19920;-74
2023/10/22 07:12:38;;;;;;;;;;;;;;;17.90;75.92;99421.28;5034695;28;20303;-70
2023/10/22 07:15:04;;;;;;;;;;;;;;;17.73;76.82;99411.38;5029540;28;19994;-68
2023/10/22 07:17:29;;;;;;;;;;;;;;;17.68;77.28;99406.91;5013436;28;20470;-69
2023/10/22 07:19:54;;;;;;;;;;;;;;;17.58;77.32;99401.09;5029990;28;19913;-69
2023/10/22 07:22:19;;;;;;;;;;;;;;;17.31;78.69;99407.63;5022745;28;19914;-70
2023/10/22 07:24:45;;;;;;;;;;;;;;;17.42;79.02;99419.09;5033415;28;20002;-71
2023/10/22 07:27:11;;;;;;;;;;;;;;;17.50;78.80;99412.34;5033202;28;20044;-72
2023/10/22 07:29:36;;;;;;;;;;;;;;;17.57;78.77;99422.09;5020950;28;19921;-73
2023/10/22 07:32:01;;;;;;;;;;;;;;;17.95;77.67;99408.81;5014255;28;19918;-70
2023/10/22 07:34:28;;;;;;;;;;;;;;;18.12;76.67;99430.06;5013201;28;19921;-72
2023/10/22 07:36:53;;;;;;;;;;;;;;;18.23;76.52;99413.22;5022976;28;19920;-72
2023/10/22 07:39:18;;;;;;;;;;;;;;;18.40;75.35;99422.25;5019915;28;20356;-71
2023/10/22 07:41:43;;;;;;;;;;;;;;;18.15;75.54;99434.13;5016692;28;19925;-75
2023/10/22 07:44:10;;;;;;;;;;;;;;;18.03;76.43;99421.88;5016138;28;20460;-73
2023/10/22 07:46:35;;;;;;;;;;;;;;;17.95;76.75;99408.81;5027085;28;20411;-70
2023/10/22 07:49:01;;;;;;;;;;;;;;;18.23;76.13;99418.88;5031548;28;19921;-71
2023/10/22 07:51:27;;;;;;;;;;;;;;;18.47;74.90;99423.13;5032627;28;20368;-69
2023/10/22 07:53:52;;;;;;;;;;;;;;;18.42;74.90;99408.53;5030033;28;19921;-71
2023/10/22 07:56:20;;;;;;;;;;;;;;;18.36;75.17;99406.06;5024074;28;19996;-70
2023/10/22 07:58:46;;;;;;;;;;;;;;;18.51;74.26;99417.50;5019162;28;19928;-70
2023/10/22 08:01:11;;;;;;;;;;;;;;;18.36;75.06;99422.22;5018481;28;20293;-71
2023/10/22 08:03:37;;;;;;;;;;;;;;;18.51;74.38;99398.47;5018487;28;19967;-69
2023/10/22 08:06:03;;;;;;;;;;;;;;;18.75;72.97;99416.09;5028943;28;19920;-73
2023/10/22 08:08:29;;;;;;;;;;;;;;;18.94;73.01;99405.72;5021536;28;19929;-72
2023/10/22 08:10:58;;;;;;;;;;;;;;;18.51;74.07;99406.19;5014906;28;19924;-73
2023/10/22 08:13:24;;;;;;;;;;;;;;;18.79;73.45;99414.13;5017506;28;19970;-73
2023/10/22 08:15:49;;;;;;;;;;;;;;;18.39;74.57;99415.75;5030591;28;19916;-73
2023/10/22 08:18:15;;;;;;;;;;;;;;;18.48;74.38;99396.44;5022055;28;20292;-75
2023/10/22 08:20:41;;;;;;;;;;;;;;;18.67;73.54;99386.09;5026796;28;20339;-74
2023/10/22 08:23:06;;;;;;;;;;;;;;;18.82;73.20;99404.00;5021080;28;19969;-75
2023/10/22 08:25:31;;;;;;;;;;;;;;;18.83;72.60;99382.16;5030048;28;19987;-77
2023/10/22 08:27:56;;;;;;;;;;;;;;;18.43;74.61;99396.00;5020198;28;20323;-73
2023/10/22 08:30:22;;;;;;;;;;;;;;;18.78;73.34;99394.66;5031176;28;20008;-73
2023/10/22 08:32:47;;;;;;;;;;;;;;;18.86;72.51;99399.19;5017596;28;19920;-75
2023/10/22 08:35:13;;;;;;;;;;;;;;;19.11;72.28;99407.06;5033759;28;20378;-75
2023/10/22 08:37:39;;;;;;;;;;;;;;;19.17;72.16;99405.47;5033086;28;19923;-76
2023/10/22 08:40:07;;;;;;;;;;;;;;;19.15;71.95;99404.28;5028650;28;19948;-76
2023/10/22 08:42:32;;;;;;;;;;;;;;;19.24;71.72;99396.19;5029449;28;19998;-77
2023/10/22 08:44:58;;;;;;;;;;;;;;;19.03;73.11;99385.56;5018554;28;19921;-77
2023/10/22 08:47:23;;;;;;;;;;;;;;;19.07;73.15;99397.75;5021861;28;20600;-76
2023/10/22 08:49:50;;;;;;;;;;;;;;;19.19;72.22;99377.56;5022602;28;20299;-77
2023/10/22 08:52:15;;;;;;;;;;;;;;;18.96;73.11;99369.28;5019371;28;19998;-76
2023/10/22 08:54:43;;;;;;;;;;;;;;;19.11;72.34;99364.56;5022676;28;19917;-77
2023/10/22 08:57:08;;;;;;;;;;;;;;;19.22;72.23;99365.44;5026600;28;19995;-75
2023/10/22 08:59:37;;;;;;;;;;;;;;;19.39;71.41;99374.41;5013188;28;19917;-73
2023/10/22 09:02:06;;;;;;;;;;;;;;;19.50;70.78;99375.28;5024669;28;20071;-75
2023/10/22 09:04:32;;;;;;;;;;;;;;;19.57;71.44;99363.16;5034135;28;19940;-77
2023/10/22 09:06:58;;;;;;;;;;;;;;;19.52;70.86;99380.56;5018670;28;19928;-74
2023/10/22 09:09:27;;;;;;;;;;;;;;;19.67;70.18;99375.75;5016634;28;19917;-74
2023/10/22 09:11:56;;;;;;;;;;;;;;;19.62;70.19;99376.97;5017180;28;19922;-77
2023/10/22 09:14:22;;;;;;;;;;;;;;;19.72;70.13;99375.38;5014261;28;19939;-75
2023/10/22 09:16:47;;;;;;;;;;;;;;;19.84;69.44;99362.81;5026588;28;19917;-74
2023/10/22 09:19:13;;;;;;;;;;;;;;;19.70;69.74;99349.44;5026750;28;19932;-80
2023/10/22 09:21:42;;;;;;;;;;;;;;;19.74;69.59;99350.25;5029449;28;19917;-75
2023/10/22 09:24:07;;;;;;;;;;;;;;;19.89;68.81;99359.59;5024499;28;19940;-72
2023/10/22 09:26:40;;;;;;;;;;;;;;;19.97;67.85;99354.78;5025805;28;20071;-73
2023/10/22 09:29:05;;;;;;;;;;;;;;;19.73;68.22;99357.13;5013938;28;19918;-75
2023/10/22 09:31:30;;;;;;;;;;;;;;;19.95;67.69;99342.22;5030050;28;19920;-74
2023/10/22 09:33:56;;;;;;;;;;;;;;;19.98;67.77;99339.38;5015730;28;20305;-78
2023/10/22 09:36:25;;;;;;;;;;;;;;;20.03;67.34;99344.69;5016823;28;19917;-76
2023/10/22 09:38:51;;;;;;;;;;;;;;;20.14;66.83;99350.34;5011838;28;20475;-73
2023/10/22 09:41:22;;;;;;;;;;;;;;;19.84;68.15;99342.97;5017884;28;19917;-77
2023/10/22 09:43:49;;;;;;;;;;;;;;;19.99;67.69;99351.56;5028390;28;19924;-75
2023/10/22 09:46:15;;;;;;;;;;;;;;;19.73;67.84;99354.28;5013775;28;19917;-75
2023/10/22 09:48:41;;;;;;;;;;;;;;;19.82;67.84;99342.56;5016422;28;19929;-79
2023/10/22 09:51:07;;;;;;;;;;;;;;;19.91;68.21;99342.19;5029760;28;19971;-78
2023/10/22 09:53:42;;;;;;;;;;;;;;;19.91;67.62;99331.63;5020210;28;19921;-78
2023/10/22 09:56:09;;;;;;;;;;;;;;;19.99;68.24;99326.81;5025039;28;20391;-82
2023/10/22 09:58:41;;;;;;;;;;;;;;;19.60;68.23;99333.19;5020184;28;21465;-78
2023/10/22 10:01:09;;;;;;;;;;;;;;;19.93;67.81;99334.09;5025694;28;20461;-78
2023/10/22 10:03:35;;;;;;;;;;;;;;;20.18;66.96;99339.00;5018619;28;19928;-79
2023/10/22 10:06:01;;;;;;;;;;;;;;;20.33;66.03;99320.75;5023832;28;19968;-78
2023/10/22 10:08:26;;;;;;;;;;;;;;;20.32;66.49;99313.47;5023399;28;20010;-79
2023/10/22 10:10:52;;;;;;;;;;;;;;;20.54;65.20;99327.66;5008392;28;19975;-73
2023/10/22 10:13:17;;;;;;;;;;;;;;;20.55;65.16;99328.44;5009513;28;19997;-79
2023/10/22 10:15:43;;;;;;;;;;;;;;;20.54;65.38;99321.97;5008546;28;19921;-77
2023/10/22 10:18:09;;;;;;;;;;;;;;;20.62;65.65;99326.41;5004903;28;19925;-80
2023/10/22 10:20:38;;;;;;;;;;;;;;;20.67;64.71;99301.66;5009387;28;19964;-76
2023/10/22 10:23:19;;;;;;;;;;;;;;;20.62;64.74;99300.84;5015929;28;19917;-76
2023/10/22 10:25:44;;;;;;;;;;;;;;;20.74;64.26;99301.63;5008991;28;19921;-76
2023/10/22 10:28:10;;;;;;;;;;;;;;;21.01;64.09;99295.53;5009203;28;19937;-78
2023/10/22 10:30:35;;;;;;;;;;;;;;;20.99;62.81;99289.41;5009973;28;20003;-76
2023/10/22 10:33:01;;;;;;;;;;;;;;;21.24;62.31;99289.34;5015382;28;19940;-76
2023/10/22 10:35:28;;;;;;;;;;;;;;;21.33;61.79;99280.34;5014313;28;19949;-76
2023/10/22 10:38:28;;;;;;;;;;;;;;;21.50;62.45;99286.38;5014815;28;19922;-77
2023/10/22 10:40:55;;;;;;;;;;;;;;;21.78;61.29;99282.59;4952591;28;19918;-76
2023/10/22 10:43:40;;;;;;;;;;;;;;;21.78;60.10;99278.94;5012593;28;20388;-75
2023/10/22 10:46:25;;;;;;;;;;;;;;;21.80;62.06;99267.94;5029500;28;19917;-76
2023/10/22 10:48:52;;;;;;;;;;;;;;;21.95;60.81;99258.06;5026601;28;19968;-75
2023/10/22 10:51:18;;;;;;;;;;;;;;;21.97;61.09;99249.09;5025161;28;20388;-75
2023/10/22 10:54:07;;;;;;;;;;;;;;;21.97;61.15;99258.47;5016392;28;20327;-75
2023/10/22 10:56:58;;;;;;;;;;;;;;;21.98;61.94;99245.03;5026021;28;19917;-77
2023/10/22 10:59:24;;;;;;;;;;;;;;;22.21;61.08;99253.00;5031858;28;19917;-75
2023/10/22 11:02:03;;;;;;;;;;;;;;;22.29;59.51;99250.88;5027217;28;19925;-75
2023/10/22 11:04:31;;;;;;;;;;;;;;;21.90;60.35;99252.81;5032461;28;19927;-74
2023/10/22 11:06:57;;;;;;;;;;;;;;;21.66;61.76;99249.72;5033778;28;19947;-74
2023/10/22 11:09:23;;;;;;;;;;;;;;;21.60;61.90;99242.84;5013831;28;19921;-75
2023/10/22 11:12:03;;;;;;;;;;;;;;;21.87;61.52;99248.75;5012490;28;19917;-74
2023/10/22 11:14:33;;;;;;;;;;;;;;;22.26;60.29;99249.69;5033383;28;19940;-75
2023/10/22 11:16:58;;;;;;;;;;;;;;;22.32;59.68;99240.66;5033171;28;20588;-74
2023/10/22 11:19:24;;;;;;;;;;;;;;;22.55;59.20;99245.78;5023075;28;19920;-74
2023/10/22 11:21:51;;;;;;;;;;;;;;;22.29;59.20;99237.44;5032070;28;19917;-75
2023/10/22 11:24:17;;;;;;;;;;;;;;;21.74;61.99;99233.41;5022587;28;19920;-75
2023/10/22 11:26:42;;;;;;;;;;;;;;;21.70;62.54;99235.47;5021152;28;20327;-75
2023/10/22 11:29:08;;;;;;;;;;;;;;;22.07;61.65;99224.63;5015164;28;19920;-74
2023/10/22 11:31:33;;;;;;;;;;;;;;;22.43;60.24;99215.72;5013627;28;19918;-74
2023/10/22 11:34:14;;;;;;;;;;;;;;;22.77;59.44;99212.13;5012260;28;19921;-75
2023/10/22 11:36:39;;;;;;;;;;;;;;;22.72;59.09;99213.41;5011994;28;19917;-74
2023/10/22 11:39:14;;;;;;;;;;;;;;;22.86;59.38;99212.44;5016063;28;19924;-74
2023/10/22 11:41:39;;;;;;;;;;;;;;;23.09;58.24;99196.69;5020145;28;19925;-75
2023/10/22 11:44:05;;;;;;;;;;;;;;;23.28;57.45;99189.53;5016918;28;19917;-75
2023/10/22 11:46:41;;;;;;;;;;;;;;;23.42;57.83;99191.38;5033263;28;19917;-74
2023/10/22 11:49:06;;;;;;;;;;;;;;;23.47;57.52;99187.22;5015977;28;19921;-74
2023/10/22 11:51:41;;;;;;;;;;;;;;;23.45;56.64;99177.47;5012183;28;19917;-74
2023/10/22 11:54:06;;;;;;;;;;;;;;;23.61;56.40;99174.75;5027594;28;19913;-74
2023/10/22 11:56:32;;;;;;;;;;;;;;;23.77;56.17;99174.09;5017094;28;19918;-75
2023/10/22 11:58:57;;;;;;;;;;;;;;;23.73;55.94;99176.22;5024341;28;19921;-75
2023/10/22 12:01:22;;;;;;;;;;;;;;;23.80;56.10;99186.72;5033091;28;19932;-75
2023/10/22 12:03:47;;;;;;;;;;;;;;;23.88;55.38;99181.69;5023399;28;19924;-75
2023/10/22 12:06:13;;;;;;;;;;;;;;;24.08;54.94;99173.22;5031815;28;20016;-75
2023/10/22 12:08:38;;;;;;;;;;;;;;;24.04;54.18;99176.13;5020015;28;19917;-75
2023/10/22 12:11:03;;;;;;;;;;;;;;;24.13;53.81;99169.84;5013208;28;19929;-75
2023/10/22 12:13:29;;;;;;;;;;;;;;;24.02;53.88;99166.38;5027964;28;19949;-75
2023/10/22 12:15:54;;;;;;;;;;;;;;;23.28;55.63;99183.81;5019601;28;20329;-75
2023/10/22 12:18:19;;;;;;;;;;;;;;;23.61;55.56;99180.47;5021912;28;19921;-75
2023/10/22 12:20:44;;;;;;;;;;;;;;;23.34;55.17;99167.03;5030883;28;20411;-76
2023/10/22 12:23:11;;;;;;;;;;;;;;;23.61;54.96;99168.25;5023998;28;20396;-73
2023/10/22 12:25:36;;;;;;;;;;;;;;;23.67;54.72;99172.22;5015969;28;19991;-77
2023/10/22 12:28:02;;;;;;;;;;;;;;;23.44;55.03;99165.22;5024661;28;20388;-76
2023/10/22 12:30:27;;;;;;;;;;;;;;;23.25;55.15;99169.56;5022662;28;20467;-76
2023/10/22 12:32:52;;;;;;;;;;;;;;;23.35;55.59;99174.34;5012693;28;20300;-76
2023/10/22 12:35:18;;;;;;;;;;;;;;;23.54;55.29;99174.88;5012858;28;19960;-77
2023/10/22 12:37:43;;;;;;;;;;;;;;;23.83;54.91;99174.41;5015322;28;19965;-76
2023/10/22 12:40:09;;;;;;;;;;;;;;;23.90;54.53;99162.06;5025057;28;20431;-78
2023/10/22 12:42:36;;;;;;;;;;;;;;;23.95;54.41;99165.22;5016633;28;19925;-77